createdAt,value
2022-07-29T00:02:27.137Z,15.70
2022-07-29T00:04:54.089Z,15.63
2022-07-29T00:07:21.241Z,15.60
2022-07-29T00:09:51.833Z,15.53
2022-07-29T00:12:25.456Z,15.51
2022-07-29T00:14:54.971Z,15.52
2022-07-29T00:17:21.662Z,15.50
2022-07-29T00:19:48.274Z,15.45
2022-07-29T00:22:14.923Z,15.43
2022-07-29T00:24:41.767Z,15.42
2022-07-29T00:27:08.423Z,15.36
2022-07-29T00:29:35.415Z,15.31
2022-07-29T00:32:03.198Z,15.28
2022-07-29T00:34:48.842Z,15.25
2022-07-29T00:37:15.495Z,15.19
2022-07-29T00:39:42.071Z,15.15
2022-07-29T00:42:09.220Z,15.16
2022-07-29T00:44:42.151Z,15.12
2022-07-29T00:47:10.513Z,15.09
2022-07-29T00:49:37.712Z,15.08
2022-07-29T00:52:08.880Z,15.08
2022-07-29T00:54:43.828Z,15.04
2022-07-29T00:57:10.901Z,15.03
2022-07-29T00:59:37.530Z,15.04
2022-07-29T01:02:04.614Z,15.09
2022-07-29T01:04:33.123Z,15.09
2022-07-29T01:07:03.963Z,15.10
2022-07-29T01:09:35.016Z,15.15
2022-07-29T01:12:14.019Z,15.07
2022-07-29T01:14:41.848Z,15.05
2022-07-29T01:17:50.389Z,14.98
2022-07-29T01:20:47.727Z,14.95
2022-07-29T01:23:32.935Z,14.94
2022-07-29T01:26:23.042Z,14.87
2022-07-29T01:28:58.417Z,14.88
2022-07-29T01:31:32.619Z,14.86
2022-07-29T01:34:07.072Z,14.88
2022-07-29T01:36:38.202Z,14.84
2022-07-29T01:39:20.571Z,14.79
2022-07-29T01:41:55.248Z,14.75
2022-07-29T01:44:33.203Z,14.70
2022-07-29T01:47:05.934Z,14.67
2022-07-29T01:49:37.830Z,14.65
2022-07-29T01:52:14.147Z,14.61
2022-07-29T01:54:59.779Z,14.60
2022-07-29T01:57:30.233Z,14.58
2022-07-29T01:59:59.562Z,14.58
2022-07-29T02:02:29.122Z,14.59
2022-07-29T02:04:57.372Z,14.59
2022-07-29T02:07:27.059Z,14.63
2022-07-29T02:09:54.724Z,14.66
2022-07-29T02:12:22.887Z,14.65
2022-07-29T02:14:52.965Z,14.64
2022-07-29T02:17:28.718Z,14.64
2022-07-29T02:20:00.274Z,14.57
2022-07-29T02:22:30.398Z,14.53
2022-07-29T02:24:58.317Z,14.45
2022-07-29T02:27:29.417Z,14.40
2022-07-29T02:29:58.967Z,14.32
2022-07-29T02:32:28.283Z,14.22
2022-07-29T02:34:56.717Z,14.10
2022-07-29T02:37:24.945Z,14.02
2022-07-29T02:39:54.807Z,13.93
2022-07-29T02:42:25.049Z,13.83
2022-07-29T02:44:52.484Z,13.70
2022-07-29T02:47:25.444Z,13.70
2022-07-29T02:50:09.258Z,13.65
2022-07-29T02:52:42.900Z,13.55
2022-07-29T02:55:16.437Z,13.45
2022-07-29T02:57:55.139Z,13.33
2022-07-29T03:00:24.921Z,13.24
2022-07-29T03:02:55.170Z,13.16
2022-07-29T03:05:22.885Z,13.05
2022-07-29T03:08:11.651Z,12.96
2022-07-29T03:10:48.155Z,12.86
2022-07-29T03:13:16.782Z,12.75
2022-07-29T03:15:45.199Z,12.67
2022-07-29T03:18:12.232Z,12.57
2022-07-29T03:20:39.816Z,12.49
2022-07-29T03:23:06.368Z,12.43
2022-07-29T03:25:33.090Z,12.35
2022-07-29T03:28:00.018Z,12.30
2022-07-29T03:30:27.058Z,12.23
2022-07-29T03:32:54.554Z,12.18
2022-07-29T03:35:23.737Z,12.11
2022-07-29T03:37:50.525Z,12.08
2022-07-29T03:40:26.917Z,12.02
2022-07-29T03:42:55.855Z,11.96
2022-07-29T03:45:24.059Z,11.96
2022-07-29T03:48:00.668Z,11.93
2022-07-29T03:50:29.778Z,11.89
2022-07-29T03:52:56.543Z,11.88
2022-07-29T03:55:23.231Z,11.85
2022-07-29T03:57:51.543Z,11.83
2022-07-29T04:00:18.796Z,11.81
2022-07-29T04:02:50.110Z,11.79
2022-07-29T04:05:18.087Z,11.76
2022-07-29T04:07:49.102Z,11.77
2022-07-29T04:10:16.780Z,11.74
2022-07-29T04:12:43.818Z,11.74
2022-07-29T04:15:11.039Z,11.72
2022-07-29T04:17:38.141Z,11.70
2022-07-29T04:20:05.813Z,11.69
2022-07-29T04:22:32.447Z,11.68
2022-07-29T04:25:03.341Z,11.69
2022-07-29T04:27:30.607Z,11.66
2022-07-29T04:29:57.671Z,11.68
2022-07-29T04:32:25.146Z,11.69
2022-07-29T04:34:52.247Z,11.68
2022-07-29T04:37:18.785Z,11.67
2022-07-29T04:39:45.496Z,11.68
2022-07-29T04:42:12.035Z,11.69
2022-07-29T04:44:42.887Z,11.68
2022-07-29T04:47:10.103Z,11.68
2022-07-29T04:49:39.397Z,11.68
2022-07-29T04:52:06.816Z,11.69
2022-07-29T04:54:33.460Z,11.70
2022-07-29T04:57:00.105Z,11.76
2022-07-29T04:59:27.859Z,11.76
2022-07-29T05:01:54.861Z,11.76
2022-07-29T05:04:21.553Z,11.76
2022-07-29T05:06:48.544Z,11.78
2022-07-29T05:09:16.379Z,11.81
2022-07-29T05:11:42.956Z,11.83
2022-07-29T05:14:09.545Z,11.89
2022-07-29T05:16:36.173Z,11.97
2022-07-29T05:19:03.099Z,12.03
2022-07-29T05:21:29.874Z,12.11
2022-07-29T05:23:56.392Z,12.16
2022-07-29T05:26:23.377Z,12.24
2022-07-29T05:28:50.238Z,12.36
2022-07-29T05:31:16.898Z,12.43
2022-07-29T05:33:43.939Z,12.62
2022-07-29T05:36:10.489Z,12.84
2022-07-29T05:38:37.514Z,13.04
2022-07-29T05:41:05.460Z,13.32
2022-07-29T05:43:32.798Z,13.56
2022-07-29T05:45:59.671Z,13.80
2022-07-29T05:48:26.665Z,14.04
2022-07-29T05:50:53.427Z,14.22
2022-07-29T05:53:20.834Z,14.46
2022-07-29T05:55:51.033Z,14.74
2022-07-29T05:58:17.950Z,15.00
2022-07-29T06:00:45.238Z,15.17
2022-07-29T06:03:11.931Z,15.37
2022-07-29T06:05:38.550Z,15.48
2022-07-29T06:08:08.594Z,15.47
2022-07-29T06:10:39.270Z,15.35
2022-07-29T06:13:05.911Z,15.22
2022-07-29T06:15:32.800Z,15.27
2022-07-29T06:18:01.279Z,15.52
2022-07-29T06:20:32.706Z,15.80
2022-07-29T06:23:01.461Z,16.09
2022-07-29T06:25:30.443Z,16.34
2022-07-29T06:27:57.976Z,16.52
2022-07-29T06:30:34.038Z,16.68
2022-07-29T06:33:02.451Z,16.85
2022-07-29T06:35:38.626Z,17.08
2022-07-29T06:38:30.315Z,17.46
2022-07-29T06:41:02.762Z,17.98
2022-07-29T06:43:50.581Z,18.31
2022-07-29T06:46:19.287Z,18.40
2022-07-29T06:48:49.471Z,18.41
2022-07-29T06:51:23.046Z,18.26
2022-07-29T06:54:00.168Z,18.24
2022-07-29T06:56:39.608Z,18.23
2022-07-29T06:59:08.640Z,18.39
2022-07-29T07:01:37.110Z,18.53
2022-07-29T07:04:03.972Z,18.59
2022-07-29T07:06:30.657Z,18.84
2022-07-29T07:09:00.435Z,19.15
2022-07-29T07:11:27.000Z,19.51
2022-07-29T07:13:53.665Z,19.76
2022-07-29T07:16:21.637Z,20.12
2022-07-29T07:18:48.213Z,20.79
2022-07-29T07:21:19.253Z,21.17
2022-07-29T07:23:46.819Z,21.79
2022-07-29T07:26:13.648Z,21.97
2022-07-29T07:28:40.268Z,22.09
2022-07-29T07:31:06.909Z,22.02
2022-07-29T07:33:33.448Z,22.16
2022-07-29T07:36:00.045Z,22.11
2022-07-29T07:38:26.667Z,22.29
2022-07-29T07:40:53.290Z,22.46
2022-07-29T07:43:19.972Z,22.68
2022-07-29T07:45:46.634Z,23.08
2022-07-29T07:48:13.211Z,23.36
2022-07-29T07:50:39.816Z,23.53
2022-07-29T07:53:06.400Z,23.51
2022-07-29T07:56:00.045Z,23.56
2022-07-29T07:58:19.553Z,24.24
2022-07-29T08:00:46.260Z,24.44
2022-07-29T08:03:16.737Z,24.60
2022-07-29T08:05:44.319Z,24.75
2022-07-29T08:08:10.921Z,24.76
2022-07-29T08:10:57.096Z,25.22
2022-07-29T08:13:29.268Z,25.16
2022-07-29T08:15:59.225Z,25.17
2022-07-29T08:18:27.073Z,25.44
2022-07-29T08:20:53.819Z,25.84
2022-07-29T08:23:20.696Z,25.94
2022-07-29T08:25:47.352Z,25.95
2022-07-29T08:28:17.571Z,26.40
2022-07-29T08:30:44.132Z,26.45
2022-07-29T08:33:10.688Z,26.47
2022-07-29T08:35:37.315Z,26.47
2022-07-29T08:38:04.487Z,27.00
2022-07-29T08:40:32.664Z,27.12
2022-07-29T08:43:00.778Z,27.11
2022-07-29T08:45:30.516Z,27.26
2022-07-29T08:47:57.770Z,27.38
2022-07-29T08:50:24.348Z,27.29
2022-07-29T08:52:54.414Z,27.26
2022-07-29T08:55:23.326Z,27.29
2022-07-29T08:57:50.962Z,27.31
2022-07-29T09:00:22.862Z,27.58
2022-07-29T09:02:57.176Z,27.67
2022-07-29T09:05:25.262Z,27.63
2022-07-29T09:07:52.126Z,27.65
2022-07-29T09:10:19.106Z,27.83
2022-07-29T09:12:45.830Z,27.27
2022-07-29T09:15:12.379Z,27.65
2022-07-29T09:17:47.145Z,27.87
2022-07-29T09:20:23.389Z,27.95
2022-07-29T09:22:54.088Z,28.36
2022-07-29T09:25:36.397Z,28.75
2022-07-29T09:28:11.945Z,28.65
2022-07-29T09:30:55.573Z,28.32
2022-07-29T09:33:24.269Z,28.56
2022-07-29T09:36:20.350Z,28.15
2022-07-29T09:38:58.869Z,27.72
2022-07-29T09:41:25.842Z,28.21
2022-07-29T09:43:57.077Z,28.36
2022-07-29T09:46:25.101Z,28.43
2022-07-29T09:49:10.310Z,28.20
2022-07-29T09:51:38.039Z,28.63
2022-07-29T09:54:37.995Z,28.59
2022-07-29T09:57:06.792Z,29.04
2022-07-29T09:59:34.348Z,28.88
2022-07-29T10:02:01.063Z,28.99
2022-07-29T10:04:41.520Z,29.36
2022-07-29T10:07:10.704Z,29.56
2022-07-29T10:09:37.870Z,29.42
2022-07-29T10:12:09.029Z,29.30
2022-07-29T10:14:36.335Z,29.51
2022-07-29T10:17:04.521Z,29.77
2022-07-29T10:19:32.488Z,29.05
2022-07-29T10:22:00.537Z,29.13
2022-07-29T10:24:28.970Z,29.38
2022-07-29T10:26:56.919Z,29.64
2022-07-29T10:29:24.536Z,29.34
2022-07-29T10:32:11.167Z,29.43
2022-07-29T10:35:31.906Z,29.24
2022-07-29T10:38:24.654Z,29.57
2022-07-29T10:41:22.441Z,29.77
2022-07-29T10:43:52.731Z,30.04
2022-07-29T10:46:21.696Z,30.24
2022-07-29T10:49:10.174Z,30.54
2022-07-29T10:51:53.222Z,30.63
2022-07-29T10:54:37.519Z,30.72
2022-07-29T10:57:53.284Z,30.67
2022-07-29T11:00:29.734Z,30.23
2022-07-29T11:03:01.663Z,30.57
2022-07-29T11:06:08.668Z,30.90
2022-07-29T11:08:35.448Z,30.47
2022-07-29T11:11:20.215Z,30.59
2022-07-29T11:13:52.255Z,30.76
2022-07-29T11:16:25.239Z,30.93
2022-07-29T11:19:26.723Z,31.29
2022-07-29T11:21:58.637Z,31.18
2022-07-29T11:24:31.860Z,30.77
2022-07-29T11:27:17.873Z,30.98
2022-07-29T11:30:02.200Z,31.11
2022-07-29T11:32:48.417Z,31.20
2022-07-29T11:35:37.144Z,30.95
2022-07-29T11:38:24.365Z,31.08
2022-07-29T11:41:23.776Z,30.97
2022-07-29T11:44:00.887Z,31.17
2022-07-29T11:46:49.592Z,30.96
2022-07-29T11:49:32.147Z,30.99
2022-07-29T11:52:06.387Z,31.18
2022-07-29T11:54:57.145Z,31.44
2022-07-29T11:57:36.620Z,31.50
2022-07-29T12:00:12.677Z,31.70
2022-07-29T12:02:43.803Z,31.74
2022-07-29T12:05:22.248Z,30.77
2022-07-29T12:08:23.227Z,30.08
2022-07-29T12:10:51.719Z,30.71
2022-07-29T12:13:21.131Z,30.78
2022-07-29T12:15:59.981Z,31.00
2022-07-29T12:18:35.162Z,30.81
2022-07-29T12:21:06.300Z,29.79
2022-07-29T12:23:34.426Z,30.24
2022-07-29T12:26:04.915Z,30.71
2022-07-29T12:28:38.547Z,30.89
2022-07-29T12:31:06.347Z,31.45
2022-07-29T12:33:35.977Z,31.33
2022-07-29T12:36:07.513Z,31.31
2022-07-29T12:38:36.895Z,31.23
2022-07-29T12:41:04.854Z,31.41
2022-07-29T12:43:32.527Z,31.06
2022-07-29T12:46:12.117Z,29.71
2022-07-29T12:48:43.021Z,28.88
2022-07-29T12:51:12.587Z,29.28
2022-07-29T12:53:39.695Z,29.62
2022-07-29T12:56:20.780Z,30.16
2022-07-29T12:58:53.715Z,30.43
2022-07-29T13:01:21.746Z,30.40
2022-07-29T13:03:57.052Z,30.41
2022-07-29T13:06:41.201Z,29.59
2022-07-29T13:09:18.939Z,29.66
2022-07-29T13:11:50.858Z,29.63
2022-07-29T13:14:35.068Z,29.64
2022-07-29T13:17:12.217Z,29.46
2022-07-29T13:19:41.612Z,29.91
2022-07-29T13:22:11.597Z,30.09
2022-07-29T13:24:52.448Z,30.32
2022-07-29T13:27:20.830Z,30.48
2022-07-29T13:29:47.908Z,30.51
2022-07-29T13:32:14.699Z,30.59
2022-07-29T13:34:41.852Z,30.15
2022-07-29T13:37:08.592Z,29.76
2022-07-29T13:39:35.445Z,29.76
2022-07-29T13:42:02.156Z,29.52
2022-07-29T13:44:28.845Z,29.45
2022-07-29T13:46:55.542Z,29.13
2022-07-29T13:49:22.250Z,29.22
2022-07-29T13:51:50.096Z,29.14
2022-07-29T13:54:18.032Z,28.89
2022-07-29T13:56:44.732Z,28.96
2022-07-29T13:59:14.019Z,28.73
2022-07-29T14:01:43.191Z,28.62
2022-07-29T14:04:11.244Z,28.66
2022-07-29T14:06:40.501Z,28.65
2022-07-29T14:09:07.333Z,28.38
2022-07-29T14:11:34.349Z,28.33
2022-07-29T14:14:00.865Z,28.28
2022-07-29T14:16:27.544Z,28.23
2022-07-29T14:18:54.128Z,28.25
2022-07-29T14:21:20.889Z,28.15
2022-07-29T14:23:47.500Z,28.10
2022-07-29T14:26:36.121Z,27.90
2022-07-29T14:29:02.724Z,27.65
2022-07-29T14:31:29.483Z,27.51
2022-07-29T14:34:08.219Z,27.41
2022-07-29T14:36:34.738Z,27.47
2022-07-29T14:39:01.324Z,27.48
2022-07-29T14:41:29.276Z,27.48
2022-07-29T14:43:56.086Z,27.35
2022-07-29T14:46:22.697Z,27.34
2022-07-29T14:48:49.681Z,27.08
2022-07-29T14:51:16.539Z,26.97
2022-07-29T14:53:59.813Z,26.90
2022-07-29T14:56:46.694Z,26.99
2022-07-29T14:59:13.244Z,26.91
2022-07-29T15:01:39.803Z,26.95
2022-07-29T15:04:06.885Z,26.91
2022-07-29T15:06:33.763Z,26.82
2022-07-29T15:09:00.366Z,26.77
2022-07-29T15:11:26.926Z,26.71
2022-07-29T15:13:53.487Z,26.62
2022-07-29T15:16:20.157Z,26.55
2022-07-29T15:18:46.930Z,26.53
2022-07-29T15:21:13.491Z,26.41
2022-07-29T15:23:40.093Z,26.21
2022-07-29T15:26:06.635Z,26.00
2022-07-29T15:28:33.280Z,26.07
2022-07-29T15:30:59.989Z,26.05
2022-07-29T15:33:26.902Z,25.94
2022-07-29T15:35:53.891Z,25.72
2022-07-29T15:38:20.520Z,25.69
2022-07-29T15:40:55.353Z,25.62
2022-07-29T15:43:21.980Z,25.52
2022-07-29T15:46:07.560Z,25.45
2022-07-29T15:48:34.502Z,25.26
2022-07-29T15:51:01.475Z,25.27
2022-07-29T15:53:28.137Z,25.24
2022-07-29T15:55:54.743Z,25.05
2022-07-29T15:58:21.391Z,24.97
2022-07-29T16:00:48.010Z,24.93
2022-07-29T16:03:15.002Z,24.87
2022-07-29T16:05:41.892Z,24.82
2022-07-29T16:08:09.087Z,24.89
2022-07-29T16:10:35.650Z,24.78
2022-07-29T16:13:02.157Z,24.73
2022-07-29T16:15:28.704Z,24.52
2022-07-29T16:17:55.282Z,24.37
2022-07-29T16:20:22.451Z,24.40
2022-07-29T16:22:49.416Z,24.36
2022-07-29T16:25:15.942Z,24.44
2022-07-29T16:27:42.838Z,24.48
2022-07-29T16:30:09.978Z,24.34
2022-07-29T16:32:37.024Z,24.34
2022-07-29T16:35:05.290Z,24.30
2022-07-29T16:37:35.526Z,24.31
2022-07-29T16:40:03.596Z,24.27
2022-07-29T16:42:46.207Z,24.20
2022-07-29T16:45:13.904Z,24.11
2022-07-29T16:47:41.170Z,24.08
2022-07-29T16:50:08.662Z,23.97
2022-07-29T16:52:36.112Z,23.95
2022-07-29T16:55:02.822Z,23.87
2022-07-29T16:57:29.462Z,23.77
2022-07-29T16:59:56.007Z,23.67
2022-07-29T17:02:22.743Z,23.64
2022-07-29T17:04:49.358Z,23.51
2022-07-29T17:07:16.493Z,23.44
2022-07-29T17:09:43.126Z,23.27
2022-07-29T17:12:09.800Z,23.08
2022-07-29T17:14:36.858Z,22.92
2022-07-29T17:17:04.546Z,22.87
2022-07-29T17:19:40.477Z,22.74
2022-07-29T17:22:12.921Z,22.64
2022-07-29T17:24:42.866Z,22.55
2022-07-29T17:27:10.441Z,22.49
2022-07-29T17:29:38.766Z,22.42
2022-07-29T17:32:07.850Z,22.39
2022-07-29T17:34:38.787Z,22.38
2022-07-29T17:37:06.971Z,22.29
2022-07-29T17:39:35.507Z,22.19
2022-07-29T17:42:04.226Z,22.15
2022-07-29T17:44:30.847Z,22.08
2022-07-29T17:46:59.232Z,22.03
2022-07-29T17:49:27.002Z,22.02
2022-07-29T17:51:55.507Z,21.80
2022-07-29T17:54:27.267Z,21.62
2022-07-29T17:56:53.898Z,21.44
2022-07-29T17:59:21.838Z,21.36
2022-07-29T18:01:48.428Z,21.23
2022-07-29T18:04:20.115Z,21.11
2022-07-29T18:06:46.656Z,21.05
2022-07-29T18:09:13.286Z,20.98
2022-07-29T18:11:39.879Z,20.86
2022-07-29T18:14:11.050Z,20.74
2022-07-29T18:16:38.622Z,20.57
2022-07-29T18:19:05.443Z,20.43
2022-07-29T18:21:44.303Z,20.28
2022-07-29T18:24:18.698Z,20.12
2022-07-29T18:26:45.415Z,19.96
2022-07-29T18:29:12.530Z,19.88
2022-07-29T18:31:41.251Z,19.76
2022-07-29T18:34:07.983Z,19.64
2022-07-29T18:36:34.726Z,19.51
2022-07-29T18:39:01.272Z,19.38
2022-07-29T18:41:27.855Z,19.31
2022-07-29T18:43:54.483Z,19.25
2022-07-29T18:46:21.320Z,19.11
2022-07-29T18:48:48.216Z,19.02
2022-07-29T18:51:14.943Z,18.90
2022-07-29T18:53:43.089Z,18.84
2022-07-29T18:56:09.851Z,18.75
2022-07-29T18:58:38.299Z,18.69
2022-07-29T19:01:05.807Z,18.62
2022-07-29T19:03:32.407Z,18.49
2022-07-29T19:05:58.957Z,18.40
2022-07-29T19:08:25.558Z,18.31
2022-07-29T19:10:53.370Z,18.23
2022-07-29T19:13:19.979Z,18.16
2022-07-29T19:15:46.658Z,18.02
2022-07-29T19:18:16.215Z,17.91
2022-07-29T19:20:42.776Z,17.85
2022-07-29T19:23:09.378Z,17.79
2022-07-29T19:25:36.037Z,17.67
2022-07-29T19:28:02.737Z,17.57
2022-07-29T19:30:29.344Z,17.45
2022-07-29T19:32:56.053Z,17.31
2022-07-29T19:35:25.295Z,17.20
2022-07-29T19:37:52.776Z,17.11
2022-07-29T19:40:19.681Z,17.03
2022-07-29T19:42:48.270Z,16.90
2022-07-29T19:45:15.268Z,16.77
2022-07-29T19:47:41.923Z,16.65
2022-07-29T19:50:09.520Z,16.57
2022-07-29T19:52:36.525Z,16.52
2022-07-29T19:55:07.568Z,16.39
2022-07-29T19:57:40.747Z,16.27
2022-07-29T20:00:11.157Z,16.12
2022-07-29T20:02:39.623Z,16.03
2022-07-29T20:05:06.911Z,15.99
2022-07-29T20:07:33.488Z,15.87
2022-07-29T20:10:00.009Z,15.80
2022-07-29T20:12:26.573Z,15.71
2022-07-29T20:14:53.229Z,15.61
2022-07-29T20:17:22.227Z,15.53
2022-07-29T20:19:49.955Z,15.48
2022-07-29T20:22:21.222Z,15.41
2022-07-29T20:24:48.883Z,15.38
2022-07-29T20:27:15.413Z,15.37
2022-07-29T20:29:42.058Z,15.43
2022-07-29T20:32:08.887Z,15.40
2022-07-29T20:34:35.579Z,15.32
2022-07-29T20:37:02.896Z,15.34
2022-07-29T20:39:30.496Z,15.33
2022-07-29T20:41:57.175Z,15.32
2022-07-29T20:44:24.430Z,15.28
2022-07-29T20:46:51.103Z,15.26
2022-07-29T20:49:17.808Z,15.26
2022-07-29T20:51:44.567Z,15.24
2022-07-29T20:54:11.752Z,15.23
2022-07-29T20:56:39.074Z,15.24
2022-07-29T20:59:05.608Z,15.22
2022-07-29T21:01:32.171Z,15.10
2022-07-29T21:04:01.983Z,14.98
2022-07-29T21:06:29.057Z,14.84
2022-07-29T21:09:01.129Z,14.72
2022-07-29T21:11:44.202Z,14.67
2022-07-29T21:14:22.475Z,14.65
2022-07-29T21:16:50.430Z,14.68
2022-07-29T21:19:17.556Z,14.73
2022-07-29T21:21:44.107Z,14.79
2022-07-29T21:24:12.091Z,14.86
2022-07-29T21:26:38.910Z,14.91
2022-07-29T21:29:05.486Z,14.98
2022-07-29T21:31:32.027Z,15.02
2022-07-29T21:33:58.549Z,15.07
2022-07-29T21:39:11.589Z,15.15
2022-07-29T21:41:38.355Z,15.17
2022-07-29T21:44:05.004Z,15.20
2022-07-29T21:46:31.654Z,15.20
2022-07-29T21:48:58.309Z,15.19
2022-07-29T21:51:25.096Z,15.19
2022-07-29T21:53:53.068Z,15.14
2022-07-29T21:56:19.879Z,15.06
2022-07-29T21:58:47.881Z,14.98
2022-07-29T22:04:55.036Z,14.91
2022-07-29T22:07:21.551Z,14.87
2022-07-29T22:09:48.117Z,14.85
2022-07-29T22:12:14.860Z,14.75
2022-07-29T22:14:41.370Z,14.67
2022-07-29T22:17:07.992Z,14.59
2022-07-29T22:19:34.783Z,14.51
2022-07-29T22:22:01.433Z,14.44
2022-07-29T22:24:27.947Z,14.35
2022-07-29T22:26:54.493Z,14.23
2022-07-29T22:29:21.046Z,14.13
2022-07-29T22:31:47.570Z,14.05
2022-07-29T22:34:14.425Z,14.01
2022-07-29T22:36:41.222Z,13.94
2022-07-29T22:39:08.017Z,13.91
2022-07-29T22:41:34.859Z,13.87
2022-07-29T22:44:01.594Z,13.77
2022-07-29T22:46:28.392Z,13.74
2022-07-29T22:48:55.156Z,13.67
2022-07-29T22:51:24.335Z,13.60
2022-07-29T22:53:50.935Z,13.55
2022-07-29T22:56:20.212Z,13.51
2022-07-29T22:58:46.846Z,13.48
2022-07-29T23:01:13.432Z,13.46
2022-07-29T23:03:40.160Z,13.43
2022-07-29T23:06:17.439Z,13.38
2022-07-29T23:08:44.206Z,13.36
2022-07-29T23:11:10.789Z,13.31
2022-07-29T23:13:37.510Z,13.30
2022-07-29T23:16:04.268Z,13.32
2022-07-29T23:18:30.969Z,13.26
2022-07-29T23:20:57.582Z,13.17
2022-07-29T23:23:24.269Z,13.13
2022-07-29T23:25:50.857Z,13.08
2022-07-29T23:28:18.805Z,13.06
2022-07-29T23:30:45.402Z,13.06
2022-07-29T23:33:11.969Z,13.03
2022-07-29T23:35:38.593Z,13.05
2022-07-29T23:38:05.315Z,13.07
2022-07-29T23:40:31.977Z,13.10
2022-07-29T23:42:58.535Z,13.02
2022-07-29T23:45:42.889Z,12.88
2022-07-29T23:48:11.701Z,12.73
2022-07-29T23:50:38.233Z,12.74
2022-07-29T23:53:05.065Z,12.81
2022-07-29T23:55:36.983Z,12.77
2022-07-29T23:58:05.505Z,12.78
